PWSweather.com
Personal Weather Stations
Station Observations
KNVELKO7
Elko, NV 89801

Elko, NV 89801

Lat: 40.963233, Lon: -115.592836

Elevation: 5230

Station Type: WS-2812

Latest ConditionsUpdated 10:30:27 AM PDT Thursday, Jul 31, 2014
Currently Today's Max Today's Min Today's Average
Temperature 84.1°F28.9°C 84.6°F29.2°C 58.3°F14.6°C 66.9°F19.4°C
Dew Point 55.7°F13.2°C 60.4°F15.8°C 47.0°F8.3°C 50.5°F10.3°C
Winds 2.3 mph N3.7 kmh N 8.5 mph NNW13.7 kmh NNW - 1.9 mph 3.1 kmh
Wind Gusts 6.9 mph11.1 kmh 10.5 mph16.9 kmh - -
Humidity 38% 69% 38% 56%
Pressure 30.20 in1022.7 mb 30.21 in1023.0 mb 30.18 in1022.0 mb -
Hour Temp Dew Point Humidity Winds Wind Gusts Pressure Precip Precip Rate Daily Precip Total
10:30 AM 84.1°F28.9°C 55.7°F13.2°C 38% 2.3 mph N3.7 kmh N 6.9 mph11.1 kmh 30.20 in1022.7 mb 0.00 in0.0 mm 0.00 in/hr0.0 mm/hr 0.00 in0.0 mm
10:25 AM 84.6°F29.2°C 57.8°F14.3°C 40% 3.3 mph SW5.3 kmh SW 3.6 mph5.8 kmh 30.20 in1022.7 mb 0.00 in0.0 mm 0.00 in/hr0.0 mm/hr 0.00 in0.0 mm
10:20 AM 84.2°F29.0°C 58.1°F14.5°C 41% 0.9 mph S1.4 kmh S 4.9 mph7.9 kmh 30.20 in1022.7 mb 0.00 in0.0 mm 0.00 in/hr0.0 mm/hr 0.00 in0.0 mm
10:15 AM 83.5°F28.6°C 58.1°F14.5°C 42% 3.7 mph WSW6.0 kmh WSW 6.0 mph9.7 kmh 30.20 in1022.7 mb 0.00 in0.0 mm 0.00 in/hr0.0 mm/hr 0.00 in0.0 mm
10:10 AM 83.3°F28.5°C 57.3°F14.1°C 41% 3.9 mph SW6.3 kmh SW 6.0 mph9.7 kmh 30.20 in1022.7 mb 0.00 in0.0 mm 0.00 in/hr0.0 mm/hr 0.00 in0.0 mm
10:05 AM 83.5°F28.6°C 59.2°F15.1°C 44% 2.5 mph WSW4.0 kmh WSW 3.6 mph5.8 kmh 30.20 in1022.7 mb 0.00 in0.0 mm 0.00 in/hr0.0 mm/hr 0.00 in0.0 mm
10:00 AM 82.8°F28.2°C 60.4°F15.8°C 47% 1.4 mph SSE2.3 kmh SSE 4.9 mph7.9 kmh 30.20 in1022.7 mb 0.00 in0.0 mm 0.00 in/hr0.0 mm/hr 0.00 in0.0 mm
09:55 AM 82.1°F27.8°C 59.8°F15.4°C 47% 3.0 mph S4.8 kmh S 4.9 mph7.9 kmh 30.20 in1022.7 mb 0.00 in0.0 mm 0.00 in/hr0.0 mm/hr 0.00 in0.0 mm
09:50 AM 81.0°F27.2°C 59.4°F15.2°C 48% 3.3 mph SW5.3 kmh SW 4.0 mph6.4 kmh 30.20 in1022.7 mb 0.00 in0.0 mm 0.00 in/hr0.0 mm/hr 0.00 in0.0 mm
09:45 AM 79.9°F26.6°C 59.0°F15.0°C 49% 1.2 mph S1.9 kmh S 3.4 mph5.5 kmh 30.20 in1022.7 mb 0.00 in0.0 mm 0.00 in/hr0.0 mm/hr 0.00 in0.0 mm
09:40 AM 79.0°F26.1°C 58.9°F14.9°C 50% 2.6 mph S4.2 kmh S 3.4 mph5.5 kmh 30.20 in1022.7 mb 0.00 in0.0 mm 0.00 in/hr0.0 mm/hr 0.00 in0.0 mm
09:35 AM 77.9°F25.5°C 56.6°F13.7°C 48% 2.2 mph S3.5 kmh S 4.7 mph7.6 kmh 30.20 in1022.7 mb 0.00 in0.0 mm 0.00 in/hr0.0 mm/hr 0.00 in0.0 mm
09:30 AM 77.8°F25.4°C 57.7°F14.3°C 50% 4.1 mph SW6.6 kmh SW 4.7 mph7.6 kmh 30.20 in1022.7 mb 0.00 in0.0 mm 0.00 in/hr0.0 mm/hr 0.00 in0.0 mm
09:25 AM 77.4°F25.2°C 57.9°F14.4°C 51% 0.6 mph SSE1.0 kmh SSE 4.7 mph7.6 kmh 30.20 in1022.7 mb 0.00 in0.0 mm 0.00 in/hr0.0 mm/hr 0.00 in0.0 mm
09:20 AM 76.9°F24.9°C 57.4°F14.1°C 51% 3.4 mph S5.5 kmh S 4.7 mph7.6 kmh 30.20 in1022.7 mb 0.00 in0.0 mm 0.00 in/hr0.0 mm/hr 0.00 in0.0 mm
09:15 AM 76.1°F24.5°C 57.2°F14.0°C 52% 1.2 mph WNW1.9 kmh WNW 2.5 mph4.0 kmh 30.20 in1022.7 mb 0.00 in0.0 mm 0.00 in/hr0.0 mm/hr 0.00 in0.0 mm
09:09 AM 75.1°F23.9°C 57.8°F14.3°C 55% 1.9 mph S3.1 kmh S 2.2 mph3.5 kmh 30.20 in1022.7 mb 0.00 in0.0 mm 0.00 in/hr0.0 mm/hr 0.00 in0.0 mm
09:04 AM 74.2°F23.4°C 56.9°F13.8°C 55% 1.1 mph WSW1.8 kmh WSW 2.0 mph3.2 kmh 30.20 in1022.7 mb 0.00 in0.0 mm 0.00 in/hr0.0 mm/hr 0.00 in0.0 mm
08:59 AM 73.3°F22.9°C 57.5°F14.2°C 58% 1.5 mph SW2.4 kmh SW 2.0 mph3.2 kmh 30.21 in1023.0 mb 0.00 in0.0 mm 0.00 in/hr0.0 mm/hr 0.00 in0.0 mm
08:54 AM 72.0°F22.2°C 56.3°F13.5°C 58% 1.0 mph S1.6 kmh S 1.1 mph1.8 kmh 30.21 in1023.0 mb 0.00 in0.0 mm 0.00 in/hr0.0 mm/hr 0.00 in0.0 mm
08:49 AM 71.1°F21.7°C 54.5°F12.5°C 56% 0.4 mph WSW0.6 kmh WSW 1.8 mph2.9 kmh 30.21 in1023.0 mb 0.00 in0.0 mm 0.00 in/hr0.0 mm/hr 0.00 in0.0 mm
08:44 AM 70.6°F21.4°C 54.5°F12.5°C 57% 1.0 mph W1.6 kmh W 1.8 mph2.9 kmh 30.21 in1023.0 mb 0.00 in0.0 mm 0.00 in/hr0.0 mm/hr 0.00 in0.0 mm
08:39 AM 70.2°F21.2°C 54.7°F12.6°C 58% 1.6 mph WSW2.6 kmh WSW 1.6 mph2.6 kmh 30.21 in1023.0 mb 0.00 in0.0 mm 0.00 in/hr0.0 mm/hr 0.00 in0.0 mm
08:34 AM 70.0°F21.1°C 55.1°F12.8°C 59% Calm Calm 1.6 mph2.6 kmh 30.21 in1023.0 mb 0.00 in0.0 mm 0.00 in/hr0.0 mm/hr 0.00 in0.0 mm
08:29 AM 69.5°F20.8°C 55.1°F12.8°C 60% 0.8 mph S1.3 kmh S 2.5 mph4.0 kmh 30.21 in1023.0 mb 0.00 in0.0 mm 0.00 in/hr0.0 mm/hr 0.00 in0.0 mm
08:24 AM 69.1°F20.6°C 55.2°F12.9°C 61% 1.6 mph SSE2.6 kmh SSE 2.5 mph4.0 kmh 30.21 in1023.0 mb 0.00 in0.0 mm 0.00 in/hr0.0 mm/hr 0.00 in0.0 mm
08:19 AM 68.6°F20.3°C 55.4°F13.0°C 63% 1.6 mph SE2.6 kmh SE 2.2 mph3.5 kmh 30.21 in1023.0 mb 0.00 in0.0 mm 0.00 in/hr0.0 mm/hr 0.00 in0.0 mm
08:14 AM 68.0°F20.0°C 54.9°F12.7°C 63% 0.8 mph SE1.3 kmh SE 2.2 mph3.5 kmh 30.21 in1023.0 mb 0.00 in0.0 mm 0.00 in/hr0.0 mm/hr 0.00 in0.0 mm
08:09 AM 67.5°F19.7°C 54.9°F12.7°C 64% 0.3 mph S0.5 kmh S 0.4 mph0.6 kmh 30.21 in1023.0 mb 0.00 in0.0 mm 0.00 in/hr0.0 mm/hr 0.00 in0.0 mm
08:04 AM 67.0°F19.4°C 53.9°F12.2°C 63% 0.3 mph SSW0.5 kmh SSW 0.4 mph0.6 kmh 30.21 in1023.0 mb 0.00 in0.0 mm 0.00 in/hr0.0 mm/hr 0.00 in0.0 mm
07:58 AM 66.2°F19.0°C 53.6°F12.0°C 64% Calm Calm -- 30.20 in1022.7 mb 0.00 in0.0 mm 0.00 in/hr0.0 mm/hr 0.00 in0.0 mm
07:54 AM 65.7°F18.7°C 53.6°F12.0°C 65% Calm Calm 0.4 mph0.6 kmh 30.20 in1022.7 mb 0.00 in0.0 mm 0.00 in/hr0.0 mm/hr 0.00 in0.0 mm
07:49 AM 65.2°F18.4°C 53.9°F12.2°C 67% 0.2 mph SSW0.3 kmh SSW 0.7 mph1.1 kmh 30.20 in1022.7 mb 0.00 in0.0 mm 0.00 in/hr0.0 mm/hr 0.00 in0.0 mm
07:44 AM 64.4°F18.0°C 53.3°F11.8°C 67% 0.7 mph SSW1.1 kmh SSW 0.7 mph1.1 kmh 30.20 in1022.7 mb 0.00 in0.0 mm 0.00 in/hr0.0 mm/hr 0.00 in0.0 mm
07:39 AM 63.7°F17.6°C 53.0°F11.7°C 68% 0.4 mph S0.6 kmh S 0.7 mph1.1 kmh 30.20 in1022.7 mb 0.00 in0.0 mm 0.00 in/hr0.0 mm/hr 0.00 in0.0 mm
07:34 AM 63.2°F17.3°C 52.5°F11.4°C 68% 0.7 mph SSW1.1 kmh SSW 2.2 mph3.5 kmh 30.20 in1022.7 mb 0.00 in0.0 mm 0.00 in/hr0.0 mm/hr 0.00 in0.0 mm
07:29 AM 62.6°F17.0°C 51.9°F11.1°C 68% 1.0 mph W1.6 kmh W 2.2 mph3.5 kmh 30.20 in1022.7 mb 0.00 in0.0 mm 0.00 in/hr0.0 mm/hr 0.00 in0.0 mm
07:24 AM 62.1°F16.7°C 51.8°F11.0°C 69% 0.8 mph SW1.3 kmh SW 1.1 mph1.8 kmh 30.20 in1022.7 mb 0.00 in0.0 mm 0.00 in/hr0.0 mm/hr 0.00 in0.0 mm
07:19 AM 61.7°F16.5°C 51.5°F10.8°C 69% 0.6 mph S1.0 kmh S 0.7 mph1.1 kmh 30.20 in1022.7 mb 0.00 in0.0 mm 0.00 in/hr0.0 mm/hr 0.00 in0.0 mm
07:14 AM 61.2°F16.2°C 51.0°F10.6°C 69% 0.7 mph S1.1 kmh S 1.1 mph1.8 kmh 30.20 in1022.7 mb 0.00 in0.0 mm 0.00 in/hr0.0 mm/hr 0.00 in0.0 mm
07:09 AM 60.8°F16.0°C 50.7°F10.4°C 69% 1.0 mph S1.6 kmh S 1.1 mph1.8 kmh 30.20 in1022.7 mb 0.00 in0.0 mm 0.00 in/hr0.0 mm/hr 0.00 in0.0 mm
07:04 AM 60.5°F15.8°C 50.3°F10.2°C 69% 0.9 mph SE1.4 kmh SE 1.1 mph1.8 kmh 30.20 in1022.7 mb 0.00 in0.0 mm 0.00 in/hr0.0 mm/hr 0.00 in0.0 mm
06:58 AM 59.8°F15.4°C 49.6°F9.8°C 69% Calm Calm 0.4 mph0.6 kmh 30.20 in1022.7 mb 0.00 in0.0 mm 0.00 in/hr0.0 mm/hr 0.00 in0.0 mm
06:53 AM 58.9°F14.9°C 48.7°F9.3°C 69% Calm Calm 0.9 mph1.4 kmh 30.20 in1022.7 mb 0.00 in0.0 mm 0.00 in/hr0.0 mm/hr 0.00 in0.0 mm
06:48 AM 58.5°F14.7°C 48.0°F8.9°C 68% 0.6 mph NNW1.0 kmh NNW 2.9 mph4.7 kmh 30.20 in1022.7 mb 0.00 in0.0 mm 0.00 in/hr0.0 mm/hr 0.00 in0.0 mm
06:43 AM 58.3°F14.6°C 47.3°F8.5°C 67% 1.1 mph 1.8 kmh 2.9 mph4.7 kmh 30.19 in1022.4 mb 0.00 in0.0 mm 0.00 in/hr0.0 mm/hr 0.00 in0.0 mm
06:38 AM 58.7°F14.8°C 47.4°F8.6°C 66% 2.3 mph 3.7 kmh 2.7 mph4.3 kmh 30.19 in1022.4 mb 0.00 in0.0 mm 0.00 in/hr0.0 mm/hr 0.00 in0.0 mm
06:33 AM 58.7°F14.8°C 47.4°F8.6°C 66% 0.8 mph NNE1.3 kmh NNE 2.2 mph3.5 kmh 30.19 in1022.4 mb 0.00 in0.0 mm 0.00 in/hr0.0 mm/hr 0.00 in0.0 mm
06:29 AM 58.9°F14.9°C 47.5°F8.6°C 66% 1.5 mph 2.4 kmh 3.1 mph5.0 kmh 30.19 in1022.4 mb 0.00 in0.0 mm 0.00 in/hr0.0 mm/hr 0.00 in0.0 mm
06:24 AM 59.0°F15.0°C 47.7°F8.7°C 66% 2.5 mph 4.0 kmh 3.1 mph5.0 kmh 30.19 in1022.4 mb 0.00 in0.0 mm 0.00 in/hr0.0 mm/hr 0.00 in0.0 mm
06:19 AM 59.0°F15.0°C 47.3°F8.5°C 65% 1.1 mph N1.8 kmh N 2.2 mph3.5 kmh 30.19 in1022.4 mb 0.00 in0.0 mm 0.00 in/hr0.0 mm/hr 0.00 in0.0 mm
06:14 AM 59.0°F15.0°C 47.3°F8.5°C 65% 2.0 mph 3.2 kmh 2.2 mph3.5 kmh 30.19 in1022.4 mb 0.00 in0.0 mm 0.00 in/hr0.0 mm/hr 0.00 in0.0 mm
06:09 AM 59.2°F15.1°C 47.4°F8.6°C 65% 0.9 mph 1.4 kmh 2.5 mph4.0 kmh 30.19 in1022.4 mb 0.00 in0.0 mm 0.00 in/hr0.0 mm/hr 0.00 in0.0 mm
06:04 AM 59.0°F15.0°C 47.7°F8.7°C 66% 0.8 mph 1.3 kmh 2.9 mph4.7 kmh 30.19 in1022.4 mb 0.00 in0.0 mm 0.00 in/hr0.0 mm/hr 0.00 in0.0 mm
05:58 AM 59.0°F15.0°C 47.7°F8.7°C 66% 2.9 mph NW4.7 kmh NW 2.9 mph4.7 kmh 30.19 in1022.4 mb 0.00 in0.0 mm 0.00 in/hr0.0 mm/hr 0.00 in0.0 mm
05:53 AM 59.2°F15.1°C 47.4°F8.6°C 65% Calm Calm 1.8 mph2.9 kmh 30.19 in1022.4 mb 0.00 in0.0 mm 0.00 in/hr0.0 mm/hr 0.00 in0.0 mm
05:48 AM 59.4°F15.2°C 47.6°F8.7°C 65% Calm Calm 2.0 mph3.2 kmh 30.19 in1022.4 mb 0.00 in0.0 mm 0.00 in/hr0.0 mm/hr 0.00 in0.0 mm
05:43 AM 59.6°F15.3°C 47.3°F8.5°C 64% 1.1 mph E1.8 kmh E 2.0 mph3.2 kmh 30.19 in1022.4 mb 0.00 in0.0 mm 0.00 in/hr0.0 mm/hr 0.00 in0.0 mm
05:38 AM 59.8°F15.4°C 47.5°F8.6°C 64% 0.7 mph 1.1 kmh 3.6 mph5.8 kmh 30.19 in1022.4 mb 0.00 in0.0 mm 0.00 in/hr0.0 mm/hr 0.00 in0.0 mm
05:33 AM 59.9°F15.5°C 47.7°F8.7°C 64% 2.5 mph NNE4.0 kmh NNE 3.6 mph5.8 kmh 30.19 in1022.4 mb 0.00 in0.0 mm 0.00 in/hr0.0 mm/hr 0.00 in0.0 mm
05:28 AM 59.9°F15.5°C 47.7°F8.7°C 64% 2.5 mph 4.0 kmh 3.6 mph5.8 kmh 30.19 in1022.4 mb 0.00 in0.0 mm 0.00 in/hr0.0 mm/hr 0.00 in0.0 mm
05:23 AM 59.9°F15.5°C 47.7°F8.7°C 64% 2.8 mph NNE4.5 kmh NNE 3.6 mph5.8 kmh 30.19 in1022.4 mb 0.00 in0.0 mm 0.00 in/hr0.0 mm/hr 0.00 in0.0 mm
05:18 AM 60.1°F15.6°C 48.3°F9.1°C 65% 1.8 mph 2.9 kmh 2.5 mph4.0 kmh 30.19 in1022.4 mb 0.00 in0.0 mm 0.00 in/hr0.0 mm/hr 0.00 in0.0 mm
05:13 AM 60.5°F15.8°C 48.7°F9.3°C 65% 2.5 mph 4.0 kmh 3.8 mph6.1 kmh 30.19 in1022.4 mb 0.00 in0.0 mm 0.00 in/hr0.0 mm/hr 0.00 in0.0 mm
05:08 AM 60.5°F15.8°C 48.2°F9.0°C 64% 2.3 mph NNE3.7 kmh NNE 6.3 mph10.1 kmh 30.19 in1022.4 mb 0.00 in0.0 mm 0.00 in/hr0.0 mm/hr 0.00 in0.0 mm
05:04 AM 60.7°F15.9°C 48.4°F9.1°C 64% 4.2 mph N6.8 kmh N 6.3 mph10.1 kmh 30.19 in1022.4 mb 0.00 in0.0 mm 0.00 in/hr0.0 mm/hr 0.00 in0.0 mm
04:58 AM 61.0°F16.1°C 48.0°F8.9°C 62% 4.8 mph 7.7 kmh 5.6 mph9.0 kmh 30.19 in1022.4 mb 0.00 in0.0 mm 0.00 in/hr0.0 mm/hr 0.00 in0.0 mm
04:53 AM 61.4°F16.3°C 48.3°F9.1°C 62% 3.8 mph 6.1 kmh 4.7 mph7.6 kmh 30.19 in1022.4 mb 0.00 in0.0 mm 0.00 in/hr0.0 mm/hr 0.00 in0.0 mm
04:48 AM 61.4°F16.3°C 48.3°F9.1°C 62% 1.8 mph N2.9 kmh N 4.7 mph7.6 kmh 30.19 in1022.4 mb 0.00 in0.0 mm 0.00 in/hr0.0 mm/hr 0.00 in0.0 mm
04:43 AM 61.4°F16.3°C 48.3°F9.1°C 62% 3.6 mph 5.8 kmh 3.8 mph6.1 kmh 30.18 in1022.0 mb 0.00 in0.0 mm 0.00 in/hr0.0 mm/hr 0.00 in0.0 mm
04:38 AM 61.4°F16.3°C 48.3°F9.1°C 62% 0.6 mph 1.0 kmh 4.7 mph7.6 kmh 30.19 in1022.4 mb 0.00 in0.0 mm 0.00 in/hr0.0 mm/hr 0.00 in0.0 mm
04:33 AM 61.7°F16.5°C 48.6°F9.2°C 62% 4.6 mph NE7.4 kmh NE 4.7 mph7.6 kmh 30.19 in1022.4 mb 0.00 in0.0 mm 0.00 in/hr0.0 mm/hr 0.00 in0.0 mm
04:28 AM 62.1°F16.7°C 48.2°F9.0°C 60% Calm Calm 1.8 mph2.9 kmh 30.19 in1022.4 mb 0.00 in0.0 mm 0.00 in/hr0.0 mm/hr 0.00 in0.0 mm
04:23 AM 62.3°F16.8°C 48.2°F9.0°C 60% 1.0 mph WSW1.6 kmh WSW 2.2 mph3.5 kmh 30.18 in1022.0 mb 0.00 in0.0 mm 0.00 in/hr0.0 mm/hr 0.00 in0.0 mm
04:18 AM 62.5°F16.9°C 48.0°F8.9°C 59% 1.9 mph NNW3.1 kmh NNW 2.2 mph3.5 kmh 30.18 in1022.0 mb 0.00 in0.0 mm 0.00 in/hr0.0 mm/hr 0.00 in0.0 mm
04:13 AM 62.5°F16.9°C 48.0°F8.9°C 59% 0.4 mph NW0.6 kmh NW 1.6 mph2.6 kmh 30.18 in1022.0 mb 0.00 in0.0 mm 0.00 in/hr0.0 mm/hr 0.00 in0.0 mm
04:08 AM 62.6°F17.0°C 48.2°F9.0°C 59% 0.4 mph 0.6 kmh 3.4 mph5.5 kmh 30.19 in1022.4 mb 0.00 in0.0 mm 0.00 in/hr0.0 mm/hr 0.00 in0.0 mm
04:03 AM 63.0°F17.2°C 48.4°F9.1°C 59% 1.2 mph 1.9 kmh 3.4 mph5.5 kmh 30.18 in1022.0 mb 0.00 in0.0 mm 0.00 in/hr0.0 mm/hr 0.00 in0.0 mm
03:58 AM 63.0°F17.2°C 48.0°F8.9°C 58% 2.3 mph NNE3.7 kmh NNE 2.5 mph4.0 kmh 30.18 in1022.0 mb 0.00 in0.0 mm 0.00 in/hr0.0 mm/hr 0.00 in0.0 mm
03:53 AM 63.4°F17.4°C 47.8°F8.8°C 57% 1.3 mph 2.1 kmh 1.6 mph2.6 kmh 30.18 in1022.0 mb 0.00 in0.0 mm 0.00 in/hr0.0 mm/hr 0.00 in0.0 mm
03:48 AM 63.7°F17.6°C 48.6°F9.2°C 58% 0.6 mph 1.0 kmh 0.7 mph1.1 kmh 30.19 in1022.4 mb 0.00 in0.0 mm 0.00 in/hr0.0 mm/hr 0.00 in0.0 mm
03:43 AM 63.9°F17.7°C 48.2°F9.0°C 57% Calm Calm 1.6 mph2.6 kmh 30.18 in1022.0 mb 0.00 in0.0 mm 0.00 in/hr0.0 mm/hr 0.00 in0.0 mm
03:38 AM 63.9°F17.7°C 48.2°F9.0°C 57% 0.4 mph 0.6 kmh 2.7 mph4.3 kmh 30.19 in1022.4 mb 0.00 in0.0 mm 0.00 in/hr0.0 mm/hr 0.00 in0.0 mm
03:33 AM 64.1°F17.8°C 48.4°F9.1°C 57% 1.3 mph NNE2.1 kmh NNE 2.9 mph4.7 kmh 30.19 in1022.4 mb 0.00 in0.0 mm 0.00 in/hr0.0 mm/hr 0.00 in0.0 mm
03:28 AM 64.1°F17.8°C 48.0°F8.9°C 56% 2.3 mph 3.7 kmh 2.9 mph4.7 kmh 30.19 in1022.4 mb 0.00 in0.0 mm 0.00 in/hr0.0 mm/hr 0.00 in0.0 mm
03:23 AM 64.3°F17.9°C 48.2°F9.0°C 56% 0.7 mph NNE1.1 kmh NNE 1.1 mph1.8 kmh 30.19 in1022.4 mb 0.00 in0.0 mm 0.00 in/hr0.0 mm/hr 0.00 in0.0 mm
03:18 AM 64.4°F18.0°C 48.8°F9.3°C 57% 0.6 mph ESE1.0 kmh ESE 1.1 mph1.8 kmh 30.19 in1022.4 mb 0.00 in0.0 mm 0.00 in/hr0.0 mm/hr 0.00 in0.0 mm
03:13 AM 64.4°F18.0°C 48.2°F9.0°C 56% 0.4 mph SE0.6 kmh SE 1.3 mph2.1 kmh 30.19 in1022.4 mb 0.00 in0.0 mm 0.00 in/hr0.0 mm/hr 0.00 in0.0 mm
03:08 AM 64.6°F18.1°C 48.4°F9.1°C 56% 1.1 mph SE1.8 kmh SE 1.3 mph2.1 kmh 30.19 in1022.4 mb 0.00 in0.0 mm 0.00 in/hr0.0 mm/hr 0.00 in0.0 mm
03:03 AM 64.8°F18.2°C 48.6°F9.2°C 56% 1.1 mph ESE1.8 kmh ESE 2.0 mph3.2 kmh 30.19 in1022.4 mb 0.00 in0.0 mm 0.00 in/hr0.0 mm/hr 0.00 in0.0 mm
02:57 AM 65.0°F18.3°C 48.3°F9.1°C 55% 1.2 mph SE1.9 kmh SE 2.0 mph3.2 kmh 30.20 in1022.7 mb 0.00 in0.0 mm 0.00 in/hr0.0 mm/hr 0.00 in0.0 mm
02:52 AM 65.0°F18.3°C 47.9°F8.8°C 54% 1.7 mph SE2.7 kmh SE 1.8 mph2.9 kmh 30.20 in1022.7 mb 0.00 in0.0 mm 0.00 in/hr0.0 mm/hr 0.00 in0.0 mm
02:48 AM 65.2°F18.4°C 48.1°F8.9°C 54% 1.2 mph E1.9 kmh E 4.5 mph7.2 kmh 30.20 in1022.7 mb 0.00 in0.0 mm 0.00 in/hr0.0 mm/hr 0.00 in0.0 mm
02:43 AM 65.3°F18.5°C 48.7°F9.3°C 55% 2.8 mph E4.5 kmh E 4.5 mph7.2 kmh 30.20 in1022.7 mb 0.00 in0.0 mm 0.00 in/hr0.0 mm/hr 0.00 in0.0 mm
02:38 AM 65.5°F18.6°C 48.4°F9.1°C 54% 2.0 mph ENE3.2 kmh ENE 3.8 mph6.1 kmh 30.20 in1022.7 mb 0.00 in0.0 mm 0.00 in/hr0.0 mm/hr 0.00 in0.0 mm
02:33 AM 65.7°F18.7°C 48.1°F8.9°C 53% 3.2 mph E5.1 kmh E 3.8 mph6.1 kmh 30.20 in1022.7 mb 0.00 in0.0 mm 0.00 in/hr0.0 mm/hr 0.00 in0.0 mm
02:28 AM 65.9°F18.8°C 48.2°F9.0°C 53% 2.4 mph E3.9 kmh E 3.6 mph5.8 kmh 30.20 in1022.7 mb 0.00 in0.0 mm 0.00 in/hr0.0 mm/hr 0.00 in0.0 mm
02:23 AM 66.1°F18.9°C 48.0°F8.9°C 52% 2.6 mph E4.2 kmh E 3.6 mph5.8 kmh 30.20 in1022.7 mb 0.00 in0.0 mm 0.00 in/hr0.0 mm/hr 0.00 in0.0 mm
02:18 AM 66.4°F19.1°C 47.8°F8.8°C 51% 2.3 mph ESE3.7 kmh ESE 3.1 mph5.0 kmh 30.19 in1022.4 mb 0.00 in0.0 mm 0.00 in/hr0.0 mm/hr 0.00 in0.0 mm
02:13 AM 66.8°F19.3°C 47.6°F8.7°C 50% 3.0 mph SE4.8 kmh SE 3.1 mph5.0 kmh 30.19 in1022.4 mb 0.00 in0.0 mm 0.00 in/hr0.0 mm/hr 0.00 in0.0 mm
02:08 AM 67.1°F19.5°C 48.0°F8.9°C 50% 2.3 mph S3.7 kmh S 2.7 mph4.3 kmh 30.19 in1022.4 mb 0.00 in0.0 mm 0.00 in/hr0.0 mm/hr 0.00 in0.0 mm
02:03 AM 67.5°F19.7°C 47.7°F8.7°C 49% 1.5 mph SW2.4 kmh SW 3.4 mph5.5 kmh 30.19 in1022.4 mb 0.00 in0.0 mm 0.00 in/hr0.0 mm/hr 0.00 in0.0 mm
01:57 AM 67.7°F19.8°C 47.9°F8.8°C 49% 1.2 mph NW1.9 kmh NW 4.5 mph7.2 kmh 30.19 in1022.4 mb 0.00 in0.0 mm 0.00 in/hr0.0 mm/hr 0.00 in0.0 mm
01:52 AM 67.7°F19.8°C 47.3°F8.5°C 48% 4.0 mph 6.4 kmh 4.5 mph7.2 kmh 30.19 in1022.4 mb 0.00 in0.0 mm 0.00 in/hr0.0 mm/hr 0.00 in0.0 mm
01:47 AM 67.7°F19.8°C 47.3°F8.5°C 48% 2.0 mph N3.2 kmh N 2.5 mph4.0 kmh 30.20 in1022.7 mb 0.00 in0.0 mm 0.00 in/hr0.0 mm/hr 0.00 in0.0 mm
01:42 AM 68.0°F20.0°C 47.6°F8.7°C 48% 2.2 mph NW3.5 kmh NW 2.5 mph4.0 kmh 30.20 in1022.7 mb 0.00 in0.0 mm 0.00 in/hr0.0 mm/hr 0.00 in0.0 mm
01:37 AM 68.0°F20.0°C 47.0°F8.3°C 47% 0.8 mph SSW1.3 kmh SSW 2.5 mph4.0 kmh 30.20 in1022.7 mb 0.00 in0.0 mm 0.00 in/hr0.0 mm/hr 0.00 in0.0 mm
01:32 AM 68.2°F20.1°C 47.2°F8.4°C 47% 1.9 mph NW3.1 kmh NW 3.4 mph5.5 kmh 30.20 in1022.7 mb 0.00 in0.0 mm 0.00 in/hr0.0 mm/hr 0.00 in0.0 mm
01:28 AM 68.2°F20.1°C 47.2°F8.4°C 47% 1.7 mph N2.7 kmh N 3.4 mph5.5 kmh 30.20 in1022.7 mb 0.00 in0.0 mm 0.00 in/hr0.0 mm/hr 0.00 in0.0 mm
01:23 AM 68.4°F20.2°C 47.4°F8.6°C 47% 2.0 mph N3.2 kmh N 4.5 mph7.2 kmh 30.20 in1022.7 mb 0.00 in0.0 mm 0.00 in/hr0.0 mm/hr 0.00 in0.0 mm
01:18 AM 68.6°F20.3°C 47.5°F8.6°C 47% 2.3 mph 3.7 kmh 5.4 mph8.7 kmh 30.20 in1022.7 mb 0.00 in0.0 mm 0.00 in/hr0.0 mm/hr 0.00 in0.0 mm
01:13 AM 68.8°F20.4°C 47.6°F8.7°C 47% 4.0 mph 6.4 kmh 5.6 mph9.0 kmh 30.20 in1022.7 mb 0.00 in0.0 mm 0.00 in/hr0.0 mm/hr 0.00 in0.0 mm
01:08 AM 68.8°F20.4°C 47.1°F8.4°C 46% 5.5 mph 8.9 kmh 5.6 mph9.0 kmh 30.20 in1022.7 mb 0.00 in0.0 mm 0.00 in/hr0.0 mm/hr 0.00 in0.0 mm
01:03 AM 68.9°F20.5°C 47.8°F8.8°C 47% 2.0 mph NNW3.2 kmh NNW 3.1 mph5.0 kmh 30.20 in1022.7 mb 0.00 in0.0 mm 0.00 in/hr0.0 mm/hr 0.00 in0.0 mm
12:57 AM 69.3°F20.7°C 48.2°F9.0°C 47% 1.9 mph SE3.1 kmh SE 2.7 mph4.3 kmh 30.20 in1022.7 mb 0.00 in0.0 mm 0.00 in/hr0.0 mm/hr 0.00 in0.0 mm
12:52 AM 69.7°F20.9°C 48.4°F9.1°C 47% 2.1 mph SE3.4 kmh SE 6.3 mph10.1 kmh 30.20 in1022.7 mb 0.00 in0.0 mm 0.00 in/hr0.0 mm/hr 0.00 in0.0 mm
12:47 AM 70.0°F21.1°C 48.2°F9.0°C 46% 1.7 mph NW2.7 kmh NW 9.8 mph15.8 kmh 30.20 in1022.7 mb 0.00 in0.0 mm 0.00 in/hr0.0 mm/hr 0.00 in0.0 mm
12:42 AM 70.2°F21.2°C 48.3°F9.1°C 46% 8.5 mph NNW13.7 kmh NNW 9.8 mph15.8 kmh 30.20 in1022.7 mb 0.00 in0.0 mm 0.00 in/hr0.0 mm/hr 0.00 in0.0 mm
12:37 AM 70.4°F21.3°C 47.9°F8.8°C 45% 7.7 mph NNW12.4 kmh NNW 8.9 mph14.3 kmh 30.20 in1022.7 mb 0.00 in0.0 mm 0.00 in/hr0.0 mm/hr 0.00 in0.0 mm
12:32 AM 70.4°F21.3°C 47.9°F8.8°C 45% 4.0 mph 6.4 kmh 7.4 mph11.9 kmh 30.20 in1022.7 mb 0.00 in0.0 mm 0.00 in/hr0.0 mm/hr 0.00 in0.0 mm
12:27 AM 70.4°F21.3°C 48.5°F9.2°C 46% 4.3 mph N6.9 kmh N 10.5 mph16.9 kmh 30.20 in1022.7 mb 0.00 in0.0 mm 0.00 in/hr0.0 mm/hr 0.00 in0.0 mm
12:22 AM 70.6°F21.4°C 48.1°F8.9°C 45% 8.3 mph N13.4 kmh N 10.5 mph16.9 kmh 30.20 in1022.7 mb 0.00 in0.0 mm 0.00 in/hr0.0 mm/hr 0.00 in0.0 mm
12:17 AM 70.2°F21.2°C 48.3°F9.1°C 46% 7.6 mph 12.2 kmh 8.5 mph13.7 kmh 30.20 in1022.7 mb 0.00 in0.0 mm 0.00 in/hr0.0 mm/hr 0.00 in0.0 mm
12:12 AM 70.2°F21.2°C 47.8°F8.8°C 45% 1.7 mph NNE2.7 kmh NNE 3.4 mph5.5 kmh 30.20 in1022.7 mb 0.00 in0.0 mm 0.00 in/hr0.0 mm/hr 0.00 in0.0 mm
12:07 AM 70.6°F21.4°C 48.1°F8.9°C 45% 1.5 mph N2.4 kmh N 5.4 mph8.7 kmh 30.20 in1022.7 mb 0.00 in0.0 mm 0.00 in/hr0.0 mm/hr 0.00 in0.0 mm
12:03 AM 70.7°F21.5°C 48.2°F9.0°C 45% 2.5 mph N4.0 kmh N 7.6 mph12.2 kmh 30.20 in1022.7 mb 0.00 in0.0 mm 0.00 in/hr0.0 mm/hr 0.00 in0.0 mm